sensor_id;sensor_type;location;lat;lon;timestamp;P1;durP1;ratioP1;P2;durP2;ratioP2
21018;SDS011;10667;51.056;3.732;2023-07-20T00:02:00;12.13;;;5.65;;
21018;SDS011;10667;51.056;3.732;2023-07-20T00:04:27;11.70;;;5.28;;
21018;SDS011;10667;51.056;3.732;2023-07-20T00:06:53;7.68;;;5.20;;
21018;SDS011;10667;51.056;3.732;2023-07-20T00:09:18;9.30;;;5.90;;
21018;SDS011;10667;51.056;3.732;2023-07-20T00:11:49;12.85;;;6.13;;
21018;SDS011;10667;51.056;3.732;2023-07-20T00:14:15;10.57;;;5.88;;
21018;SDS011;10667;51.056;3.732;2023-07-20T00:16:42;12.77;;;5.85;;
21018;SDS011;10667;51.056;3.732;2023-07-20T00:19:07;14.13;;;6.07;;
21018;SDS011;10667;51.056;3.732;2023-07-20T00:21:34;9.02;;;5.53;;
21018;SDS011;10667;51.056;3.732;2023-07-20T00:23:59;11.95;;;6.13;;
21018;SDS011;10667;51.056;3.732;2023-07-20T00:26:25;9.25;;;5.75;;
21018;SDS011;10667;51.056;3.732;2023-07-20T00:28:50;13.82;;;6.50;;
21018;SDS011;10667;51.056;3.732;2023-07-20T00:31:16;12.77;;;5.68;;
21018;SDS011;10667;51.056;3.732;2023-07-20T00:33:42;13.95;;;6.50;;
21018;SDS011;10667;51.056;3.732;2023-07-20T00:36:08;10.35;;;5.97;;
21018;SDS011;10667;51.056;3.732;2023-07-20T00:38:33;12.20;;;6.75;;
21018;SDS011;10667;51.056;3.732;2023-07-20T00:40:59;12.35;;;6.07;;
21018;SDS011;10667;51.056;3.732;2023-07-20T00:43:25;14.30;;;7.22;;
21018;SDS011;10667;51.056;3.732;2023-07-20T00:45:50;16.30;;;6.90;;
21018;SDS011;10667;51.056;3.732;2023-07-20T00:48:16;11.23;;;6.43;;
21018;SDS011;10667;51.056;3.732;2023-07-20T00:50:41;16.02;;;6.40;;
21018;SDS011;10667;51.056;3.732;2023-07-20T00:53:08;13.80;;;6.60;;
21018;SDS011;10667;51.056;3.732;2023-07-20T00:55:34;14.07;;;6.57;;
21018;SDS011;10667;51.056;3.732;2023-07-20T00:57:59;15.05;;;7.82;;
21018;SDS011;10667;51.056;3.732;2023-07-20T01:00:25;16.02;;;7.28;;
21018;SDS011;10667;51.056;3.732;2023-07-20T01:02:52;12.10;;;7.40;;
21018;SDS011;10667;51.056;3.732;2023-07-20T01:05:18;12.02;;;6.28;;
21018;SDS011;10667;51.056;3.732;2023-07-20T01:07:53;12.73;;;6.93;;
21018;SDS011;10667;51.056;3.732;2023-07-20T01:10:40;12.48;;;7.25;;
21018;SDS011;10667;51.056;3.732;2023-07-20T01:13:09;13.63;;;7.22;;
21018;SDS011;10667;51.056;3.732;2023-07-20T01:15:36;12.48;;;7.57;;
21018;SDS011;10667;51.056;3.732;2023-07-20T01:18:02;11.63;;;7.85;;
21018;SDS011;10667;51.056;3.732;2023-07-20T01:20:29;13.70;;;8.05;;
21018;SDS011;10667;51.056;3.732;2023-07-20T01:26:08;14.70;;;7.30;;
21018;SDS011;10667;51.056;3.732;2023-07-20T01:29:06;13.55;;;6.63;;
21018;SDS011;10667;51.056;3.732;2023-07-20T01:31:48;14.50;;;7.30;;
21018;SDS011;10667;51.056;3.732;2023-07-20T01:34:18;11.15;;;6.47;;
21018;SDS011;10667;51.056;3.732;2023-07-20T01:36:46;15.00;;;7.82;;
21018;SDS011;10667;51.056;3.732;2023-07-20T01:39:14;12.43;;;7.63;;
21018;SDS011;10667;51.056;3.732;2023-07-20T01:41:41;14.50;;;6.82;;
21018;SDS011;10667;51.056;3.732;2023-07-20T01:44:08;9.25;;;6.82;;
21018;SDS011;10667;51.056;3.732;2023-07-20T01:46:33;10.25;;;6.90;;
21018;SDS011;10667;51.056;3.732;2023-07-20T01:48:59;10.15;;;6.47;;
21018;SDS011;10667;51.056;3.732;2023-07-20T01:51:25;11.63;;;7.05;;
21018;SDS011;10667;51.056;3.732;2023-07-20T01:53:50;9.98;;;6.63;;
21018;SDS011;10667;51.056;3.732;2023-07-20T01:56:16;12.63;;;7.35;;
21018;SDS011;10667;51.056;3.732;2023-07-20T01:58:41;11.57;;;7.32;;
21018;SDS011;10667;51.056;3.732;2023-07-20T02:01:07;16.25;;;7.95;;
21018;SDS011;10667;51.056;3.732;2023-07-20T02:03:33;11.02;;;7.88;;
21018;SDS011;10667;51.056;3.732;2023-07-20T02:05:59;8.95;;;7.05;;
21018;SDS011;10667;51.056;3.732;2023-07-20T02:08:24;14.10;;;8.23;;
21018;SDS011;10667;51.056;3.732;2023-07-20T02:10:50;16.58;;;7.88;;
21018;SDS011;10667;51.056;3.732;2023-07-20T02:13:17;13.88;;;7.85;;
21018;SDS011;10667;51.056;3.732;2023-07-20T02:15:43;14.48;;;7.63;;
21018;SDS011;10667;51.056;3.732;2023-07-20T02:18:08;12.35;;;8.27;;
21018;SDS011;10667;51.056;3.732;2023-07-20T02:20:34;16.00;;;7.28;;
21018;SDS011;10667;51.056;3.732;2023-07-20T02:23:00;11.55;;;7.82;;
21018;SDS011;10667;51.056;3.732;2023-07-20T02:25:26;12.23;;;8.05;;
21018;SDS011;10667;51.056;3.732;2023-07-20T02:27:52;12.85;;;7.88;;
21018;SDS011;10667;51.056;3.732;2023-07-20T02:30:18;15.98;;;8.23;;
21018;SDS011;10667;51.056;3.732;2023-07-20T02:32:43;11.80;;;7.57;;
21018;SDS011;10667;51.056;3.732;2023-07-20T02:35:14;12.75;;;7.35;;
21018;SDS011;10667;51.056;3.732;2023-07-20T02:37:40;13.82;;;8.70;;
21018;SDS011;10667;51.056;3.732;2023-07-20T02:40:05;14.32;;;8.35;;
21018;SDS011;10667;51.056;3.732;2023-07-20T02:42:32;11.63;;;8.23;;
21018;SDS011;10667;51.056;3.732;2023-07-20T02:44:58;15.10;;;8.50;;
21018;SDS011;10667;51.056;3.732;2023-07-20T02:47:23;15.15;;;8.82;;
21018;SDS011;10667;51.056;3.732;2023-07-20T02:49:49;14.65;;;8.65;;
21018;SDS011;10667;51.056;3.732;2023-07-20T02:52:15;13.43;;;8.45;;
21018;SDS011;10667;51.056;3.732;2023-07-20T02:54:40;9.38;;;7.32;;
21018;SDS011;10667;51.056;3.732;2023-07-20T02:57:06;12.45;;;8.20;;
21018;SDS011;10667;51.056;3.732;2023-07-20T02:59:32;11.13;;;7.50;;
21018;SDS011;10667;51.056;3.732;2023-07-20T03:01:57;10.73;;;7.78;;
21018;SDS011;10667;51.056;3.732;2023-07-20T03:04:25;14.38;;;8.77;;
21018;SDS011;10667;51.056;3.732;2023-07-20T03:06:52;12.23;;;8.30;;
21018;SDS011;10667;51.056;3.732;2023-07-20T03:09:17;14.25;;;8.52;;
21018;SDS011;10667;51.056;3.732;2023-07-20T03:11:43;15.40;;;8.60;;
21018;SDS011;10667;51.056;3.732;2023-07-20T03:14:09;14.10;;;8.65;;
21018;SDS011;10667;51.056;3.732;2023-07-20T03:16:35;11.77;;;7.95;;
21018;SDS011;10667;51.056;3.732;2023-07-20T03:19:01;12.73;;;8.15;;
21018;SDS011;10667;51.056;3.732;2023-07-20T03:21:27;17.13;;;9.68;;
21018;SDS011;10667;51.056;3.732;2023-07-20T03:23:53;16.85;;;8.95;;
21018;SDS011;10667;51.056;3.732;2023-07-20T03:26:19;12.40;;;8.10;;
21018;SDS011;10667;51.056;3.732;2023-07-20T03:28:45;12.15;;;8.13;;
21018;SDS011;10667;51.056;3.732;2023-07-20T03:31:11;16.42;;;8.77;;
21018;SDS011;10667;51.056;3.732;2023-07-20T03:33:36;11.48;;;8.27;;
21018;SDS011;10667;51.056;3.732;2023-07-20T03:36:02;12.27;;;7.43;;
21018;SDS011;10667;51.056;3.732;2023-07-20T03:38:28;14.95;;;8.27;;
21018;SDS011;10667;51.056;3.732;2023-07-20T03:40:54;13.10;;;8.25;;
21018;SDS011;10667;51.056;3.732;2023-07-20T03:43:22;13.88;;;7.88;;
21018;SDS011;10667;51.056;3.732;2023-07-20T03:45:48;11.95;;;8.00;;
21018;SDS011;10667;51.056;3.732;2023-07-20T03:48:16;11.90;;;8.30;;
21018;SDS011;10667;51.056;3.732;2023-07-20T03:50:43;10.63;;;7.32;;
21018;SDS011;10667;51.056;3.732;2023-07-20T03:53:10;9.90;;;7.50;;
21018;SDS011;10667;51.056;3.732;2023-07-20T03:55:36;10.10;;;7.50;;
21018;SDS011;10667;51.056;3.732;2023-07-20T03:58:02;15.93;;;8.50;;
21018;SDS011;10667;51.056;3.732;2023-07-20T04:00:28;10.77;;;7.63;;
21018;SDS011;10667;51.056;3.732;2023-07-20T04:02:54;15.48;;;8.73;;
21018;SDS011;10667;51.056;3.732;2023-07-20T04:05:19;15.05;;;8.50;;
21018;SDS011;10667;51.056;3.732;2023-07-20T04:07:45;10.52;;;8.18;;
21018;SDS011;10667;51.056;3.732;2023-07-20T04:10:11;10.02;;;7.45;;
21018;SDS011;10667;51.056;3.732;2023-07-20T04:12:37;12.05;;;8.15;;
21018;SDS011;10667;51.056;3.732;2023-07-20T04:15:03;11.98;;;8.75;;
21018;SDS011;10667;51.056;3.732;2023-07-20T04:17:29;13.10;;;8.55;;
21018;SDS011;10667;51.056;3.732;2023-07-20T04:19:55;11.05;;;8.55;;
21018;SDS011;10667;51.056;3.732;2023-07-20T04:22:20;13.93;;;8.73;;
21018;SDS011;10667;51.056;3.732;2023-07-20T04:24:46;13.75;;;8.80;;
21018;SDS011;10667;51.056;3.732;2023-07-20T04:27:12;13.93;;;8.63;;
21018;SDS011;10667;51.056;3.732;2023-07-20T04:29:37;10.32;;;8.40;;
21018;SDS011;10667;51.056;3.732;2023-07-20T04:32:03;12.32;;;8.73;;
21018;SDS011;10667;51.056;3.732;2023-07-20T04:34:29;12.32;;;9.07;;
21018;SDS011;10667;51.056;3.732;2023-07-20T04:36:55;12.52;;;9.10;;
21018;SDS011;10667;51.056;3.732;2023-07-20T04:39:20;12.70;;;8.73;;
21018;SDS011;10667;51.056;3.732;2023-07-20T04:41:46;13.40;;;9.30;;
21018;SDS011;10667;51.056;3.732;2023-07-20T04:44:12;11.23;;;7.32;;
21018;SDS011;10667;51.056;3.732;2023-07-20T04:46:38;9.52;;;7.80;;
21018;SDS011;10667;51.056;3.732;2023-07-20T04:49:05;14.45;;;9.18;;
21018;SDS011;10667;51.056;3.732;2023-07-20T04:51:31;10.90;;;8.75;;
21018;SDS011;10667;51.056;3.732;2023-07-20T04:53:56;12.23;;;8.00;;
21018;SDS011;10667;51.056;3.732;2023-07-20T04:56:22;11.02;;;8.23;;
21018;SDS011;10667;51.056;3.732;2023-07-20T04:58:49;12.25;;;8.52;;
21018;SDS011;10667;51.056;3.732;2023-07-20T05:01:15;8.45;;;7.55;;
21018;SDS011;10667;51.056;3.732;2023-07-20T05:03:41;9.93;;;7.10;;
21018;SDS011;10667;51.056;3.732;2023-07-20T05:06:06;7.85;;;6.95;;
21018;SDS011;10667;51.056;3.732;2023-07-20T05:08:32;8.85;;;7.13;;
21018;SDS011;10667;51.056;3.732;2023-07-20T05:10:59;9.95;;;7.30;;
21018;SDS011;10667;51.056;3.732;2023-07-20T05:13:25;9.30;;;7.53;;
21018;SDS011;10667;51.056;3.732;2023-07-20T05:15:51;11.18;;;7.43;;
21018;SDS011;10667;51.056;3.732;2023-07-20T05:18:17;11.25;;;7.35;;
21018;SDS011;10667;51.056;3.732;2023-07-20T05:20:47;9.00;;;7.15;;
21018;SDS011;10667;51.056;3.732;2023-07-20T05:23:13;7.05;;;6.25;;
21018;SDS011;10667;51.056;3.732;2023-07-20T05:25:39;9.07;;;6.60;;
21018;SDS011;10667;51.056;3.732;2023-07-20T05:28:05;8.10;;;6.63;;
21018;SDS011;10667;51.056;3.732;2023-07-20T05:30:31;9.13;;;7.20;;
21018;SDS011;10667;51.056;3.732;2023-07-20T05:32:57;8.13;;;6.15;;
21018;SDS011;10667;51.056;3.732;2023-07-20T05:35:22;9.63;;;7.00;;
21018;SDS011;10667;51.056;3.732;2023-07-20T05:37:48;11.65;;;7.35;;
21018;SDS011;10667;51.056;3.732;2023-07-20T05:40:14;11.30;;;6.47;;
21018;SDS011;10667;51.056;3.732;2023-07-20T05:42:44;6.43;;;5.80;;
21018;SDS011;10667;51.056;3.732;2023-07-20T05:45:11;7.68;;;5.25;;
21018;SDS011;10667;51.056;3.732;2023-07-20T05:47:37;6.72;;;4.82;;
21018;SDS011;10667;51.056;3.732;2023-07-20T05:50:03;7.60;;;5.45;;
21018;SDS011;10667;51.056;3.732;2023-07-20T05:52:29;7.55;;;4.82;;
21018;SDS011;10667;51.056;3.732;2023-07-20T05:54:54;7.07;;;4.72;;
21018;SDS011;10667;51.056;3.732;2023-07-20T05:57:20;6.40;;;4.25;;
21018;SDS011;10667;51.056;3.732;2023-07-20T05:59:46;6.13;;;4.25;;
21018;SDS011;10667;51.056;3.732;2023-07-20T06:02:12;8.48;;;4.05;;
21018;SDS011;10667;51.056;3.732;2023-07-20T06:04:38;6.10;;;4.18;;
21018;SDS011;10667;51.056;3.732;2023-07-20T06:07:04;3.80;;;3.40;;
21018;SDS011;10667;51.056;3.732;2023-07-20T06:09:30;5.80;;;3.83;;
21018;SDS011;10667;51.056;3.732;2023-07-20T06:11:56;5.57;;;3.10;;
21018;SDS011;10667;51.056;3.732;2023-07-20T06:14:22;3.90;;;3.15;;
21018;SDS011;10667;51.056;3.732;2023-07-20T06:16:47;5.35;;;3.95;;
21018;SDS011;10667;51.056;3.732;2023-07-20T06:19:13;5.10;;;3.13;;
21018;SDS011;10667;51.056;3.732;2023-07-20T06:21:39;4.72;;;3.38;;
21018;SDS011;10667;51.056;3.732;2023-07-20T06:24:05;3.45;;;2.97;;
21018;SDS011;10667;51.056;3.732;2023-07-20T06:26:30;4.65;;;3.30;;
21018;SDS011;10667;51.056;3.732;2023-07-20T06:29:03;3.75;;;2.78;;
21018;SDS011;10667;51.056;3.732;2023-07-20T06:31:28;4.15;;;2.65;;
21018;SDS011;10667;51.056;3.732;2023-07-20T06:33:54;3.47;;;2.65;;
21018;SDS011;10667;51.056;3.732;2023-07-20T06:36:20;3.47;;;2.97;;
21018;SDS011;10667;51.056;3.732;2023-07-20T06:38:45;4.43;;;2.53;;
21018;SDS011;10667;51.056;3.732;2023-07-20T06:41:11;2.33;;;1.90;;
21018;SDS011;10667;51.056;3.732;2023-07-20T06:43:37;2.65;;;1.55;;
21018;SDS011;10667;51.056;3.732;2023-07-20T06:46:03;2.53;;;1.52;;
21018;SDS011;10667;51.056;3.732;2023-07-20T06:48:28;1.50;;;1.30;;
21018;SDS011;10667;51.056;3.732;2023-07-20T06:50:54;3.90;;;1.88;;
21018;SDS011;10667;51.056;3.732;2023-07-20T06:53:20;1.52;;;1.30;;
21018;SDS011;10667;51.056;3.732;2023-07-20T06:55:46;2.50;;;1.60;;
21018;SDS011;10667;51.056;3.732;2023-07-20T06:58:12;1.73;;;1.33;;
21018;SDS011;10667;51.056;3.732;2023-07-20T07:00:38;2.30;;;1.23;;
21018;SDS011;10667;51.056;3.732;2023-07-20T07:03:04;1.30;;;1.08;;
21018;SDS011;10667;51.056;3.732;2023-07-20T07:05:29;2.38;;;1.42;;
21018;SDS011;10667;51.056;3.732;2023-07-20T07:07:55;2.70;;;1.27;;
21018;SDS011;10667;51.056;3.732;2023-07-20T07:10:20;2.25;;;1.20;;
21018;SDS011;10667;51.056;3.732;2023-07-20T07:12:46;1.60;;;1.30;;
21018;SDS011;10667;51.056;3.732;2023-07-20T07:15:12;1.75;;;0.90;;
21018;SDS011;10667;51.056;3.732;2023-07-20T07:17:37;1.42;;;1.27;;
21018;SDS011;10667;51.056;3.732;2023-07-20T07:20:03;2.25;;;1.27;;
21018;SDS011;10667;51.056;3.732;2023-07-20T07:22:30;3.20;;;1.75;;
21018;SDS011;10667;51.056;3.732;2023-07-20T07:24:56;2.40;;;1.58;;
21018;SDS011;10667;51.056;3.732;2023-07-20T07:27:21;2.15;;;1.77;;
21018;SDS011;10667;51.056;3.732;2023-07-20T07:29:47;2.42;;;1.75;;
21018;SDS011;10667;51.056;3.732;2023-07-20T07:32:13;2.15;;;1.50;;
21018;SDS011;10667;51.056;3.732;2023-07-20T07:34:39;1.98;;;1.50;;
21018;SDS011;10667;51.056;3.732;2023-07-20T07:37:05;2.42;;;1.80;;
21018;SDS011;10667;51.056;3.732;2023-07-20T07:39:31;2.55;;;1.30;;
21018;SDS011;10667;51.056;3.732;2023-07-20T07:41:56;1.73;;;1.50;;
21018;SDS011;10667;51.056;3.732;2023-07-20T07:44:22;1.77;;;1.63;;
21018;SDS011;10667;51.056;3.732;2023-07-20T07:46:48;2.00;;;1.80;;
21018;SDS011;10667;51.056;3.732;2023-07-20T07:49:14;2.22;;;1.75;;
21018;SDS011;10667;51.056;3.732;2023-07-20T07:51:40;1.75;;;1.63;;
21018;SDS011;10667;51.056;3.732;2023-07-20T07:54:06;1.38;;;1.27;;
21018;SDS011;10667;51.056;3.732;2023-07-20T07:56:32;1.40;;;1.30;;
21018;SDS011;10667;51.056;3.732;2023-07-20T07:58:57;1.50;;;1.40;;
21018;SDS011;10667;51.056;3.732;2023-07-20T08:01:23;2.72;;;1.42;;
21018;SDS011;10667;51.056;3.732;2023-07-20T08:03:49;3.10;;;1.75;;
21018;SDS011;10667;51.056;3.732;2023-07-20T08:06:14;2.65;;;1.80;;
21018;SDS011;10667;51.056;3.732;2023-07-20T08:08:40;1.80;;;1.70;;
21018;SDS011;10667;51.056;3.732;2023-07-20T08:11:07;1.50;;;1.40;;
21018;SDS011;10667;51.056;3.732;2023-07-20T08:13:33;1.85;;;1.70;;
21018;SDS011;10667;51.056;3.732;2023-07-20T08:16:00;3.58;;;1.95;;
21018;SDS011;10667;51.056;3.732;2023-07-20T08:18:27;2.17;;;1.95;;
21018;SDS011;10667;51.056;3.732;2023-07-20T08:20:53;4.18;;;2.10;;
21018;SDS011;10667;51.056;3.732;2023-07-20T08:23:19;4.47;;;1.77;;
21018;SDS011;10667;51.056;3.732;2023-07-20T08:25:45;1.40;;;1.30;;
21018;SDS011;10667;51.056;3.732;2023-07-20T08:28:11;1.63;;;1.52;;
21018;SDS011;10667;51.056;3.732;2023-07-20T08:30:39;1.70;;;1.60;;
21018;SDS011;10667;51.056;3.732;2023-07-20T08:33:15;1.70;;;1.60;;
21018;SDS011;10667;51.056;3.732;2023-07-20T08:35:44;2.08;;;1.70;;
21018;SDS011;10667;51.056;3.732;2023-07-20T08:38:10;2.00;;;1.80;;
21018;SDS011;10667;51.056;3.732;2023-07-20T08:40:40;1.70;;;1.60;;
21018;SDS011;10667;51.056;3.732;2023-07-20T08:43:07;2.60;;;1.70;;
21018;SDS011;10667;51.056;3.732;2023-07-20T08:45:35;3.08;;;1.85;;
21018;SDS011;10667;51.056;3.732;2023-07-20T08:48:03;1.67;;;1.42;;
21018;SDS011;10667;51.056;3.732;2023-07-20T08:50:31;2.65;;;2.05;;
21018;SDS011;10667;51.056;3.732;2023-07-20T08:52:57;2.47;;;1.98;;
21018;SDS011;10667;51.056;3.732;2023-07-20T08:55:24;2.47;;;1.50;;
21018;SDS011;10667;51.056;3.732;2023-07-20T08:57:54;2.00;;;1.80;;
21018;SDS011;10667;51.056;3.732;2023-07-20T09:00:21;2.40;;;1.33;;
21018;SDS011;10667;51.056;3.732;2023-07-20T09:02:49;3.45;;;1.83;;
21018;SDS011;10667;51.056;3.732;2023-07-20T09:05:16;2.60;;;1.55;;
21018;SDS011;10667;51.056;3.732;2023-07-20T09:07:43;1.13;;;1.00;;
21018;SDS011;10667;51.056;3.732;2023-07-20T09:10:09;1.95;;;1.60;;
21018;SDS011;10667;51.056;3.732;2023-07-20T09:12:35;1.83;;;1.38;;
21018;SDS011;10667;51.056;3.732;2023-07-20T09:15:03;2.65;;;1.20;;
21018;SDS011;10667;51.056;3.732;2023-07-20T09:17:29;2.88;;;1.60;;
21018;SDS011;10667;51.056;3.732;2023-07-20T09:19:55;2.63;;;1.70;;
21018;SDS011;10667;51.056;3.732;2023-07-20T09:22:21;1.75;;;1.38;;
21018;SDS011;10667;51.056;3.732;2023-07-20T09:24:46;1.33;;;1.17;;
21018;SDS011;10667;51.056;3.732;2023-07-20T09:27:12;3.70;;;1.88;;
21018;SDS011;10667;51.056;3.732;2023-07-20T09:29:47;2.75;;;1.80;;
21018;SDS011;10667;51.056;3.732;2023-07-20T09:32:17;2.70;;;1.60;;
21018;SDS011;10667;51.056;3.732;2023-07-20T09:34:45;1.38;;;1.10;;
21018;SDS011;10667;51.056;3.732;2023-07-20T09:37:11;2.42;;;1.35;;
21018;SDS011;10667;51.056;3.732;2023-07-20T09:39:44;2.85;;;1.20;;
21018;SDS011;10667;51.056;3.732;2023-07-20T09:42:13;3.38;;;1.25;;
21018;SDS011;10667;51.056;3.732;2023-07-20T09:44:40;2.53;;;1.60;;
21018;SDS011;10667;51.056;3.732;2023-07-20T09:47:08;1.45;;;1.23;;
21018;SDS011;10667;51.056;3.732;2023-07-20T09:49:40;1.25;;;1.05;;
21018;SDS011;10667;51.056;3.732;2023-07-20T09:52:08;2.05;;;1.30;;
21018;SDS011;10667;51.056;3.732;2023-07-20T09:54:35;2.65;;;1.10;;
21018;SDS011;10667;51.056;3.732;2023-07-20T09:57:03;2.10;;;0.90;;
21018;SDS011;10667;51.056;3.732;2023-07-20T09:59:36;1.20;;;1.10;;
21018;SDS011;10667;51.056;3.732;2023-07-20T10:02:02;1.02;;;0.95;;
21018;SDS011;10667;51.056;3.732;2023-07-20T10:04:36;3.45;;;1.52;;
21018;SDS011;10667;51.056;3.732;2023-07-20T10:07:04;1.67;;;1.33;;
21018;SDS011;10667;51.056;3.732;2023-07-20T10:09:33;1.58;;;1.10;;
21018;SDS011;10667;51.056;3.732;2023-07-20T10:12:04;1.73;;;1.10;;
21018;SDS011;10667;51.056;3.732;2023-07-20T10:14:31;1.25;;;1.15;;
21018;SDS011;10667;51.056;3.732;2023-07-20T10:17:00;1.65;;;1.00;;
21018;SDS011;10667;51.056;3.732;2023-07-20T10:19:32;1.15;;;1.00;;
21018;SDS011;10667;51.056;3.732;2023-07-20T10:22:06;1.88;;;1.08;;
21018;SDS011;10667;51.056;3.732;2023-07-20T10:24:37;1.15;;;0.90;;
21018;SDS011;10667;51.056;3.732;2023-07-20T10:27:04;1.58;;;1.13;;
21018;SDS011;10667;51.056;3.732;2023-07-20T10:29:30;1.05;;;1.00;;
21018;SDS011;10667;51.056;3.732;2023-07-20T10:31:56;1.33;;;1.23;;
21018;SDS011;10667;51.056;3.732;2023-07-20T10:34:23;1.25;;;0.82;;
21018;SDS011;10667;51.056;3.732;2023-07-20T10:36:49;2.05;;;0.98;;
21018;SDS011;10667;51.056;3.732;2023-07-20T10:39:25;1.10;;;0.88;;
21018;SDS011;10667;51.056;3.732;2023-07-20T10:42:09;1.10;;;0.68;;
21018;SDS011;10667;51.056;3.732;2023-07-20T10:44:38;1.58;;;0.85;;
21018;SDS011;10667;51.056;3.732;2023-07-20T10:47:11;2.13;;;1.10;;
21018;SDS011;10667;51.056;3.732;2023-07-20T10:52:25;1.35;;;0.70;;
21018;SDS011;10667;51.056;3.732;2023-07-20T10:54:51;1.73;;;0.90;;
21018;SDS011;10667;51.056;3.732;2023-07-20T10:57:23;3.03;;;0.90;;
21018;SDS011;10667;51.056;3.732;2023-07-20T10:59:53;1.25;;;0.75;;
21018;SDS011;10667;51.056;3.732;2023-07-20T11:02:41;1.77;;;1.20;;
21018;SDS011;10667;51.056;3.732;2023-07-20T11:05:08;0.80;;;0.80;;
21018;SDS011;10667;51.056;3.732;2023-07-20T11:07:56;2.05;;;0.80;;
21018;SDS011;10667;51.056;3.732;2023-07-20T11:10:22;1.25;;;0.90;;
21018;SDS011;10667;51.056;3.732;2023-07-20T11:16:07;1.40;;;1.17;;
21018;SDS011;10667;51.056;3.732;2023-07-20T11:18:33;2.55;;;0.90;;
21018;SDS011;10667;51.056;3.732;2023-07-20T11:20:59;1.33;;;0.90;;
21018;SDS011;10667;51.056;3.732;2023-07-20T11:23:25;1.25;;;0.90;;
21018;SDS011;10667;51.056;3.732;2023-07-20T11:25:51;0.80;;;0.80;;
21018;SDS011;10667;51.056;3.732;2023-07-20T11:28:17;1.27;;;0.90;;
21018;SDS011;10667;51.056;3.732;2023-07-20T11:30:42;2.05;;;1.10;;
21018;SDS011;10667;51.056;3.732;2023-07-20T11:33:08;3.00;;;1.25;;
21018;SDS011;10667;51.056;3.732;2023-07-20T11:35:35;1.60;;;1.20;;
21018;SDS011;10667;51.056;3.732;2023-07-20T11:38:07;2.83;;;1.40;;
21018;SDS011;10667;51.056;3.732;2023-07-20T11:40:33;2.17;;;1.00;;
21018;SDS011;10667;51.056;3.732;2023-07-20T11:42:58;1.58;;;1.02;;
21018;SDS011;10667;51.056;3.732;2023-07-20T11:45:25;2.90;;;1.27;;
21018;SDS011;10667;51.056;3.732;2023-07-20T11:47:52;1.77;;;1.10;;
21018;SDS011;10667;51.056;3.732;2023-07-20T11:50:18;1.38;;;1.20;;
21018;SDS011;10667;51.056;3.732;2023-07-20T11:52:43;1.60;;;1.30;;
21018;SDS011;10667;51.056;3.732;2023-07-20T11:55:09;2.67;;;1.70;;
21018;SDS011;10667;51.056;3.732;2023-07-20T11:57:36;1.27;;;1.10;;
21018;SDS011;10667;51.056;3.732;2023-07-20T12:00:03;1.75;;;1.45;;
21018;SDS011;10667;51.056;3.732;2023-07-20T12:02:34;5.88;;;1.80;;
21018;SDS011;10667;51.056;3.732;2023-07-20T12:05:00;1.92;;;1.33;;
21018;SDS011;10667;51.056;3.732;2023-07-20T12:07:28;1.60;;;1.50;;
21018;SDS011;10667;51.056;3.732;2023-07-20T12:10:03;2.05;;;1.50;;
21018;SDS011;10667;51.056;3.732;2023-07-20T12:12:34;2.17;;;1.00;;
21018;SDS011;10667;51.056;3.732;2023-07-20T12:15:15;2.00;;;1.30;;
21018;SDS011;10667;51.056;3.732;2023-07-20T12:17:52;1.80;;;1.63;;
21018;SDS011;10667;51.056;3.732;2023-07-20T12:23:23;4.25;;;2.08;;
21018;SDS011;10667;51.056;3.732;2023-07-20T12:25:49;4.55;;;1.98;;
21018;SDS011;10667;51.056;3.732;2023-07-20T12:28:16;4.28;;;2.00;;
21018;SDS011;10667;51.056;3.732;2023-07-20T12:30:44;2.05;;;1.80;;
21018;SDS011;10667;51.056;3.732;2023-07-20T12:33:10;5.50;;;1.90;;
21018;SDS011;10667;51.056;3.732;2023-07-20T12:35:40;2.95;;;2.17;;
21018;SDS011;10667;51.056;3.732;2023-07-20T12:38:08;4.13;;;1.92;;
21018;SDS011;10667;51.056;3.732;2023-07-20T12:40:34;5.45;;;2.08;;
21018;SDS011;10667;51.056;3.732;2023-07-20T12:43:00;3.72;;;1.70;;
21018;SDS011;10667;51.056;3.732;2023-07-20T12:45:25;3.17;;;1.35;;
21018;SDS011;10667;51.056;3.732;2023-07-20T12:47:51;2.05;;;1.65;;
21018;SDS011;10667;51.056;3.732;2023-07-20T12:50:17;2.00;;;1.40;;
21018;SDS011;10667;51.056;3.732;2023-07-20T12:52:43;2.53;;;1.45;;
21018;SDS011;10667;51.056;3.732;2023-07-20T12:55:09;3.13;;;1.58;;
21018;SDS011;10667;51.056;3.732;2023-07-20T12:57:35;2.13;;;1.50;;
21018;SDS011;10667;51.056;3.732;2023-07-20T13:00:05;1.95;;;1.00;;
21018;SDS011;10667;51.056;3.732;2023-07-20T13:02:35;125.28;;;11.13;;
21018;SDS011;10667;51.056;3.732;2023-07-20T13:05:01;55.60;;;4.13;;
21018;SDS011;10667;51.056;3.732;2023-07-20T13:07:31;7.60;;;1.95;;
21018;SDS011;10667;51.056;3.732;2023-07-20T13:09:59;2.42;;;1.30;;
21018;SDS011;10667;51.056;3.732;2023-07-20T13:12:28;1.63;;;1.10;;
21018;SDS011;10667;51.056;3.732;2023-07-20T13:14:55;3.30;;;1.15;;
21018;SDS011;10667;51.056;3.732;2023-07-20T13:17:22;3.33;;;0.90;;
21018;SDS011;10667;51.056;3.732;2023-07-20T13:19:48;6.05;;;1.30;;
21018;SDS011;10667;51.056;3.732;2023-07-20T13:22:14;2.63;;;1.10;;
21018;SDS011;10667;51.056;3.732;2023-07-20T13:24:40;4.90;;;1.00;;
21018;SDS011;10667;51.056;3.732;2023-07-20T13:27:06;1.88;;;0.90;;
21018;SDS011;10667;51.056;3.732;2023-07-20T13:29:32;2.65;;;1.13;;
21018;SDS011;10667;51.056;3.732;2023-07-20T13:31:58;1.13;;;1.00;;
21018;SDS011;10667;51.056;3.732;2023-07-20T13:34:24;3.28;;;0.88;;
21018;SDS011;10667;51.056;3.732;2023-07-20T13:36:51;1.52;;;1.02;;
21018;SDS011;10667;51.056;3.732;2023-07-20T13:39:16;1.45;;;1.30;;
21018;SDS011;10667;51.056;3.732;2023-07-20T13:41:42;1.65;;;1.27;;
21018;SDS011;10667;51.056;3.732;2023-07-20T13:44:08;1.42;;;1.00;;
21018;SDS011;10667;51.056;3.732;2023-07-20T13:46:34;2.42;;;1.20;;
21018;SDS011;10667;51.056;3.732;2023-07-20T13:49:00;0.90;;;0.90;;
21018;SDS011;10667;51.056;3.732;2023-07-20T13:51:26;2.88;;;0.90;;
21018;SDS011;10667;51.056;3.732;2023-07-20T13:53:51;1.88;;;1.10;;
21018;SDS011;10667;51.056;3.732;2023-07-20T13:56:17;1.98;;;1.42;;
21018;SDS011;10667;51.056;3.732;2023-07-20T13:58:43;1.45;;;1.20;;
21018;SDS011;10667;51.056;3.732;2023-07-20T14:01:08;1.50;;;1.40;;
21018;SDS011;10667;51.056;3.732;2023-07-20T14:03:34;3.30;;;1.80;;
21018;SDS011;10667;51.056;3.732;2023-07-20T14:06:00;4.15;;;2.88;;
21018;SDS011;10667;51.056;3.732;2023-07-20T14:08:25;5.82;;;2.92;;
21018;SDS011;10667;51.056;3.732;2023-07-20T14:10:51;4.05;;;3.63;;
21018;SDS011;10667;51.056;3.732;2023-07-20T14:13:17;3.78;;;3.40;;
21018;SDS011;10667;51.056;3.732;2023-07-20T14:15:42;4.80;;;3.90;;
21018;SDS011;10667;51.056;3.732;2023-07-20T14:18:08;8.45;;;4.78;;
21018;SDS011;10667;51.056;3.732;2023-07-20T14:20:34;4.68;;;3.85;;
21018;SDS011;10667;51.056;3.732;2023-07-20T14:23:00;7.95;;;5.00;;
21018;SDS011;10667;51.056;3.732;2023-07-20T14:25:25;5.55;;;4.95;;
21018;SDS011;10667;51.056;3.732;2023-07-20T14:27:51;6.50;;;4.72;;
21018;SDS011;10667;51.056;3.732;2023-07-20T14:30:17;8.25;;;6.20;;
21018;SDS011;10667;51.056;3.732;2023-07-20T14:32:43;6.80;;;5.78;;
21018;SDS011;10667;51.056;3.732;2023-07-20T14:35:08;8.23;;;5.57;;
21018;SDS011;10667;51.056;3.732;2023-07-20T14:37:34;8.07;;;6.20;;
21018;SDS011;10667;51.056;3.732;2023-07-20T14:39:59;12.27;;;6.55;;
21018;SDS011;10667;51.056;3.732;2023-07-20T14:42:25;9.75;;;6.75;;
21018;SDS011;10667;51.056;3.732;2023-07-20T14:44:51;9.98;;;6.50;;
21018;SDS011;10667;51.056;3.732;2023-07-20T14:47:17;8.70;;;7.30;;
21018;SDS011;10667;51.056;3.732;2023-07-20T14:49:43;8.60;;;7.18;;
21018;SDS011;10667;51.056;3.732;2023-07-20T14:52:09;8.82;;;6.88;;
21018;SDS011;10667;51.056;3.732;2023-07-20T14:54:34;8.82;;;6.80;;